Latest Weather Observations for Hervey Bay

IDQ60801

Issued at 2:32 pm EST Wednesday 29 July 2015 (issued every 30 minutes, with the page automatically refreshed every 10 minutes)

About weather observations | Map of weather stations | Latest weather observations for QLD | Other Formats
Station Details ID: 040405 Name: HERVEY BAY AIRPORT Lat: -25.32 Lon: 152.88 Height: 12.98 m
Data from the previous 72 hours. | See also: Recent months at Hervey Bay
Date/Time
EST
Temp
°C
App
Temp
°C
Dew
Point
Rel
Hum
%
Delta-T
°C
Wind Press
QNH
hPa
Press
MSL
hPa
Rain
since 9 am
mm
Dir
 
Spd
km/h
Gust
km/h
Spd
kts
Gust
kts
29/02:30pm 20.7 17.7 12.4 59 4.6 SSE 20 35 11 19 1026.8 1026.8 0.0
29/02:00pm 20.7 17.6 12.1 58 4.8 SE 20 33 11 18 1026.9 1026.9 0.0
29/01:30pm 20.7 16.6 11.3 55 5.2 SSE 24 35 13 19 1027.0 1027.0 0.0
29/01:00pm 20.7 17.1 11.9 57 4.9 SSE 22 35 12 19 1027.4 1027.4 0.0
29/12:30pm 20.3 16.2 11.5 57 4.9 SSE 24 37 13 20 1027.9 1027.9 0.0
29/12:00pm 20.7 17.4 11.6 56 5.0 S 20 35 11 19 1028.3 1028.3 0.0
29/11:30am 20.4 17.1 11.6 57 4.9 S 20 30 11 16 1028.8 1028.8 0.0
29/11:00am 19.8 16.5 10.8 56 4.9 S 19 28 10 15 1029.2 1029.2 0.0
29/10:30am 19.0 15.3 10.3 57 4.7 S 20 33 11 18 1029.7 1029.7 0.0
29/10:00am 18.0 14.2 9.9 59 4.3 SSW 20 35 11 19 1029.9 1029.9 0.0
29/09:30am 17.3 13.3 9.2 59 4.2 S 20 32 11 17 1030.1 1030.1 0.0
29/09:00am 16.2 12.4 8.9 62 3.7 SSW 19 32 10 17 1030.2 1030.2 0.0
29/08:30am 15.1 11.3 9.0 67 3.1 SSW 19 30 10 16 1030.1 1030.1 0.0
29/08:00am 13.9 10.5 9.1 73 2.4 SSW 17 28 9 15 1029.8 1029.8 0.0
29/07:30am 12.0 8.9 8.8 81 1.6 SSW 15 20 8 11 1029.7 1029.7 0.0
29/07:00am 10.7 7.9 8.5 86 1.1 SSW 13 19 7 10 1029.3 1029.3 0.0
29/06:30am 10.0 7.1 8.3 89 0.8 SSW 13 15 7 8 1029.0 1029.0 0.0
29/06:00am 10.3 7.5 8.4 88 0.9 SSW 13 19 7 10 1028.8 1028.8 0.0
29/05:30am 10.2 7.7 8.3 88 0.9 SW 11 15 6 8 1028.6 1028.6 0.0
29/05:00am 10.5 7.7 8.4 87 1.0 SSW 13 17 7 9 1028.5 1028.5 0.0
29/04:30am 10.6 8.1 8.4 86 1.1 SSW 11 19 6 10 1028.3 1028.3 0.0
29/04:00am 10.9 8.0 8.3 84 1.3 SSW 13 17 7 9 1028.3 1028.3 0.0
29/03:30am 11.2 8.3 8.2 82 1.5 SW 13 17 7 9 1028.3 1028.3 0.0
29/03:00am 11.1 8.2 8.3 83 1.4 SW 13 19 7 10 1028.5 1028.5 0.0
29/02:30am 10.6 8.6 8.5 87 1.0 SW 9 13 5 7 1028.5 1028.5 0.0
29/02:00am 10.5 8.5 8.6 88 0.9 SW 9 13 5 7 1028.5 1028.5 0.0
29/01:30am 10.7 8.7 8.6 87 1.0 SW 9 11 5 6 1028.7 1028.7 0.0
29/01:00am 11.4 9.2 7.7 78 1.8 SW 9 11 5 6 1028.8 1028.8 0.0
29/12:30am 15.0 12.7 7.5 61 3.7 SSE 9 13 5 7 1028.9 1028.9 0.0
 
Date/Time
EST
Temp
°C
App
Temp
°C
Dew
Point
Rel
Hum
%
Delta-T
°C
Wind Press
QNH
hPa
Press
MSL
hPa
Rain
since 9 am
mm
Dir
 
Spd
km/h
Gust
km/h
Spd
kts
Gust
kts
28/11:30pm 15.9 13.5 8.6 62 3.7 SSE 11 17 6 9 1029.0 1029.0 0.0
28/11:00pm 16.7 14.0 8.9 60 4.0 SE 13 19 7 10 1029.0 1029.0 0.0
28/10:30pm 16.6 13.9 8.8 60 4.0 SE 13 19 7 10 1029.0 1029.0 0.0
28/10:00pm 17.1 14.5 9.3 60 4.0 SE 13 22 7 12 1029.2 1029.2 0.0
28/09:30pm 17.1 14.2 9.5 61 4.0 SE 15 22 8 12 1029.1 1029.1 0.0
28/09:00pm 17.0 14.6 10.1 64 3.6 SE 13 20 7 11 1029.1 1029.1 0.0
28/08:30pm 16.7 14.7 10.1 65 3.5 SSE 11 17 6 9 1029.1 1029.1 0.0
28/08:00pm 16.9 14.6 10.3 65 3.5 SSE 13 19 7 10 1029.0 1029.0 0.0
28/07:30pm 16.7 15.1 10.3 66 3.4 SSE 9 13 5 7 1028.7 1028.7 0.0
28/07:00pm 17.1 14.7 10.0 63 3.7 SE 13 20 7 11 1028.4 1028.4 0.0
28/06:30pm 17.1 14.8 10.5 65 3.5 SE 13 19 7 10 1028.0 1028.0 0.0
28/06:00pm 17.4 14.6 10.1 62 3.8 SE 15 22 8 12 1027.5 1027.5 0.0
28/05:30pm 17.7 14.5 9.8 60 4.2 SE 17 28 9 15 1027.3 1027.3 0.0
28/05:00pm 18.3 15.5 9.9 58 4.4 SE 15 26 8 14 1027.2 1027.2 0.0
28/04:30pm 19.2 15.1 10.2 56 4.8 SE 22 37 12 20 1026.9 1026.9 0.0
28/04:00pm 19.8 16.1 10.0 53 5.2 SE 20 30 11 16 1026.5 1026.5 0.0
28/03:30pm 20.6 17.4 11.2 55 5.2 SE 19 30 10 16 1026.2 1026.2 0.0
28/03:00pm 20.3 16.7 11.8 58 4.7 SE 22 35 12 19 1026.2 1026.2 0.0
28/02:30pm 20.8 16.8 11.7 56 5.1 SE 24 35 13 19 1026.2 1026.2 0.0
28/02:00pm 20.0 16.4 12.0 60 4.4 SE 22 33 12 18 1026.4 1026.4 0.0
28/01:30pm 21.1 18.2 12.8 59 4.7 SE 20 28 11 15 1026.6 1026.6 0.0
28/01:00pm 21.0 18.1 12.9 60 4.6 SE 20 32 11 17 1026.8 1026.8 0.0
28/12:30pm 22.0 18.5 13.4 58 5.0 SE 24 35 13 19 1026.8 1026.8 0.0
28/12:00pm 21.2 18.7 13.6 62 4.4 SSE 19 30 10 16 1027.2 1027.2 0.0
28/11:30am 20.1 17.6 12.3 61 4.4 S 17 28 9 15 1027.5 1027.5 0.0
28/11:00am 19.4 16.1 11.7 61 4.2 S 20 30 11 16 1027.8 1027.8 0.0
28/10:30am 17.9 14.4 10.8 63 3.8 S 20 33 11 18 1028.2 1028.2 0.0
28/10:00am 16.6 12.9 9.3 62 3.8 SSW 19 28 10 15 1028.3 1028.3 0.0
28/09:30am 16.4 12.3 8.6 60 4.0 SSW 20 30 11 16 1028.2 1028.2 0.0
28/09:00am 15.2 10.6 6.5 56 4.2 SSW 20 28 11 15 1028.0 1028.0 0.0
28/08:30am 15.1 10.6 6.1 55 4.3 SSW 19 26 10 14 1027.8 1027.8 0.0
28/08:00am 13.4 8.4 4.8 56 3.9 SSW 20 28 11 15 1027.5 1027.5 0.0
28/07:30am 12.3 8.7 4.8 60 3.4 SW 13 19 7 10 1027.5 1027.5 0.0
28/07:00am 11.2 7.2 5.1 66 2.8 SSW 15 22 8 12 1027.3 1027.3 0.0
28/06:30am 11.2 7.2 4.9 65 2.9 SSW 15 20 8 11 1027.1 1027.1 0.0
28/06:00am 11.4 6.9 4.4 62 3.1 SSW 17 24 9 13 1026.8 1026.8 0.0
28/05:30am 11.6 8.0 4.8 63 3.1 SSW 13 20 7 11 1026.2 1026.2 0.0
28/05:00am 11.9 7.9 4.9 62 3.2 SSW 15 19 8 10 1025.9 1025.9 0.0
28/04:30am 12.1 8.4 4.6 60 3.4 SW 13 19 7 10 1026.0 1026.0 0.0
28/04:00am 12.2 8.1 4.4 59 3.5 SW 15 22 8 12 1025.7 1025.7 0.0
28/03:30am 12.4 8.7 4.6 59 3.6 SSW 13 20 7 11 1025.5 1025.5 0.0
28/03:00am 12.5 8.8 4.7 59 3.5 SW 13 20 7 11 1025.6 1025.6 0.0
28/02:30am 12.9 9.3 4.8 58 3.7 SW 13 20 7 11 1025.5 1025.5 0.0
28/02:00am 13.3 10.3 5.9 61 3.5 SW 11 19 6 10 1025.6 1025.6 0.0
28/01:30am 13.7 10.3 6.1 60 3.6 SW 13 19 7 10 1025.6 1025.6 0.0
28/01:00am 14.0 11.1 6.4 60 3.6 SW 11 15 6 8 1025.8 1025.8 0.0
28/12:30am 14.6 11.4 6.7 59 3.8 SSW 13 17 7 9 1025.7 1025.7 0.0
28/12:00am 15.2 12.1 7.2 59 3.9 SSW 13 20 7 11 1025.5 1025.5 0.0
 
Date/Time
EST
Temp
°C
App
Temp
°C
Dew
Point
Rel
Hum
%
Delta-T
°C
Wind Press
QNH
hPa
Press
MSL
hPa
Rain
since 9 am
mm
Dir
 
Spd
km/h
Gust
km/h
Spd
kts
Gust
kts
27/11:30pm 15.8 12.3 7.0 56 4.3 SSW 15 22 8 12 1025.6 1025.6 0.0
27/11:00pm 16.2 13.0 8.4 60 3.9 SW 15 20 8 11 1025.6 1025.6 0.0
27/10:30pm 15.3 13.8 10.5 73 2.5 SW 9 13 5 7 1025.6 1025.6 0.0
27/10:00pm 14.3 13.2 12.0 86 1.2 SW 9 11 5 6 1025.6 1025.6 0.0
27/09:30pm 14.9 14.4 12.8 87 1.2 SSW 7 9 4 5 1025.5 1025.5 0.0
27/09:00pm 14.8 14.5 13.2 90 0.9 SSW 7 9 4 5 1025.2 1025.2 0.0
27/08:30pm 14.6 15.3 12.3 86 1.3 CALM 0 0 0 0 1025.0 1025.0 0.0
27/08:00pm 15.2 14.8 12.9 86 1.3 SSW 7 7 4 4 1024.7 1024.7 0.0
27/07:30pm 15.7 15.4 12.8 83 1.6 SW 6 6 3 3 1024.5 1024.5 0.0
27/07:00pm 16.7 16.6 13.2 80 1.9 S 6 7 3 4 1024.1 1024.1 0.0
27/06:30pm 17.7 17.4 12.8 73 2.7 SSW 6 7 3 4 1023.5 1023.5 0.0
27/06:00pm 19.2 18.3 12.5 65 3.7 SE 9 13 5 7 1023.0 1023.0 0.0
27/05:30pm 19.8 18.0 12.1 61 4.3 SE 13 19 7 10 1022.4 1022.4 0.0
27/05:00pm 20.8 18.7 11.2 54 5.3 ESE 13 19 7 10 1022.0 1022.0 0.0
27/04:30pm 22.6 20.0 6.0 34 8.4 S 9 13 5 7 1021.5 1021.5 0.0
27/04:00pm 23.4 19.8 4.9 30 9.2 SSW 13 19 7 10 1021.1 1021.1 0.0
27/03:30pm 23.9 20.0 5.3 30 9.4 SSW 15 20 8 11 1020.9 1020.9 0.0
27/03:00pm 24.3 19.8 6.1 31 9.3 SSW 19 26 10 14 1020.8 1020.8 0.0
27/02:30pm 24.7 20.2 6.0 30 9.6 SSW 19 28 10 15 1020.8 1020.8 0.0
27/02:00pm 24.5 20.4 6.3 31 9.3 SSW 17 26 9 14 1021.0 1021.0 0.0
27/01:30pm 24.0 19.4 5.8 31 9.3 SW 19 28 10 15 1021.5 1021.5 0.0
27/01:00pm 23.8 19.0 5.7 31 9.1 SW 20 30 11 16 1021.9 1021.9 0.0
27/12:30pm 23.3 19.5 7.4 36 8.3 SSW 17 24 9 13 1022.3 1022.3 0.0
27/12:00pm 22.7 20.0 7.3 37 8.0 SSW 11 17 6 9 1022.7 1022.7 0.0
27/11:30am 22.6 19.1 7.2 37 8.0 SW 15 22 8 12 1023.2 1023.2 0.0
27/11:00am 22.0 18.9 8.9 43 6.9 SSW 15 22 8 12 1023.8 1023.8 0.0
27/10:30am 22.3 19.1 10.1 46 6.6 SSW 17 26 9 14 1024.1 1024.1 0.0
27/10:00am 21.7 18.8 11.1 51 5.8 SSW 17 20 9 11 1024.4 1024.4 0.0
27/09:30am 21.0 18.2 11.3 54 5.4 SSW 17 22 9 12 1024.6 1024.6 0.0
27/09:00am 20.3 17.6 11.8 58 4.7 SSW 17 28 9 15 1024.6 1024.6 0.0
27/08:30am 19.7 18.6 15.4 76 2.5 SSW 15 20 8 11 1024.3 1024.3 0.0
27/08:00am 19.1 19.8 17.1 88 1.2 SSW 9 13 5 7 1024.2 1024.2 0.0
27/07:30am 18.3 19.0 17.1 93 0.7 SSW 9 13 5 7 1023.7 1023.7 0.0
27/07:00am 18.3 19.1 17.3 94 0.6 SSW 9 13 5 7 1023.3 1023.3 0.0
27/06:30am 18.2 19.0 17.2 94 0.6 SW 9 13 5 7 1022.9 1022.9 0.0
27/06:00am 18.2 19.0 17.2 94 0.6 SSW 9 13 5 7 1022.6 1022.6 0.0
27/05:30am 18.2 19.6 17.4 95 0.5 SW 6 9 3 5 1022.2 1022.2 0.0
27/05:00am 18.0 19.3 17.2 95 0.5 WSW 6 7 3 4 1021.8 1021.8 0.0
27/04:30am 18.3 19.8 17.5 95 0.5 SW 6 7 3 4 1021.7 1021.7 0.0
27/04:00am 17.5 19.7 16.5 94 0.6 CALM 0 7 0 4 1021.6 1021.6 0.0
27/03:30am 17.3 19.4 16.3 94 0.6 CALM 0 0 0 0 1021.4 1021.4 0.0
27/03:23am 17.2 19.2 16.1 93 0.7 CALM 0 0 0 0 1021.4 1021.4 0.0
27/03:00am 17.6 19.8 16.6 94 0.6 CALM 0 0 0 0 1021.2 1021.2 0.0
27/02:47am 17.8 20.1 16.7 93 0.7 CALM 0 0 0 0 1021.2 1021.2 0.0
27/02:30am 18.1 20.5 16.9 93 0.7 CALM 0 0 0 0 1021.1 1021.1 0.0
27/02:00am 18.3 20.7 17.0 92 0.8 CALM 0 4 0 2 1021.1 1021.1 0.0
27/01:30am 19.3 20.8 18.1 93 0.7 NNW 7 9 4 5 1021.1 1021.1 0.0
27/01:00am 19.2 20.6 17.9 92 0.8 NW 7 11 4 6 1021.2 1021.2 0.0
27/12:36am 19.6 20.4 18.1 91 0.9 NNW 11 15 6 8 1021.4 1021.4 0.0
27/12:30am 19.7 20.5 18.2 91 0.9 NNW 11 17 6 9 1021.3 1021.3 0.0
27/12:03am 19.8 21.1 18.5 92 0.8 NNW 9 15 5 8 1021.4 1021.4 0.0
27/12:00am 19.8 21.1 18.5 92 0.8 NNW 9 15 5 8 1021.4 1021.4 0.0
 
Date/Time
EST
Temp
°C
App
Temp
°C
Dew
Point
Rel
Hum
%
Delta-T
°C
Wind Press
QNH
hPa
Press
MSL
hPa
Rain
since 9 am
mm
Dir
 
Spd
km/h
Gust
km/h
Spd
kts
Gust
kts
26/11:38pm 19.9 21.3 18.6 92 0.8 NNW 9 11 5 6 1021.4 1021.4 0.0
26/11:30pm 20.1 21.6 18.8 92 0.8 NNW 9 13 5 7 1021.3 1021.3 0.0
26/11:00pm 20.2 22.4 19.2 94 0.6 W 6 7 3 4 1021.8 1021.8 0.0
26/10:30pm 20.2 23.5 19.2 94 0.6 CALM 0 7 0 4 1021.6 1021.6 0.0
26/10:00pm 20.0 21.5 19.0 94 0.6 N 9 13 5 7 1021.2 1021.2 0.0
26/09:35pm 20.0 22.1 19.0 94 0.6 N 6 11 3 6 1021.2 1021.2 0.0
26/09:30pm 20.0 21.5 19.0 94 0.6 N 9 13 5 7 1021.1 1021.1 0.0
26/09:00pm 20.1 21.3 19.1 94 0.6 N 11 17 6 9 1020.9 1020.9 0.0
26/08:30pm 20.1 21.3 19.1 94 0.6 N 11 15 6 8 1020.8 1020.8 0.0
26/08:00pm 19.9 20.5 18.7 93 0.7 N 13 17 7 9 1020.4 1020.4 0.0
26/07:30pm 19.9 21.0 18.9 94 0.6 N 11 19 6 10 1020.2 1020.2 0.0
26/07:00pm 19.9 20.5 18.7 93 0.7 N 13 19 7 10 1019.9 1019.9 0.0
26/06:30pm 20.0 20.7 18.8 93 0.8 NNE 13 17 7 9 1019.4 1019.4 0.0
26/06:00pm 19.9 20.9 18.7 93 0.7 NNE 11 17 6 9 1019.0 1019.0 0.0
26/05:30pm 20.2 20.6 18.9 92 0.8 N 15 20 8 11 1018.6 1018.6 0.0
26/05:00pm 20.7 21.0 18.8 89 1.2 N 15 24 8 13 1018.2 1018.2 0.0
26/04:30pm 21.4 21.2 18.6 84 1.8 N 17 22 9 12 1017.8 1017.8 0.0
26/04:00pm 21.7 21.1 18.5 82 2.0 N 19 26 10 14 1017.5 1017.5 0.0
26/03:30pm 22.3 22.0 18.3 78 2.5 N 17 22 9 12 1017.7 1017.7 0.0
26/03:00pm 22.6 22.4 18.4 77 2.6 N 17 26 9 14 1017.8 1017.8 0.0

Other Formats:

Comma delimited format used in spreadsheet applications
http://www.bom.gov.au/fwo/IDQ60801/IDQ60801.95565.axf

JavaScript Object Notation format (JSON) in row-major order
http://www.bom.gov.au/fwo/IDQ60801/IDQ60801.95565.json